< < Back
Terminal Aerodrome Forecast


Current Version              Previous Versions:   1  2  3  4  5  6  7  8  9  

Terminal Aerodrome Forecast

915
FTUS42 KJAX 212346
TAFGNV
TAF
KGNV 212346Z 2200/2224 26012KT P6SM VCTS SCT050CB
     FM220100 27006KT P6SM SCT250
     FM221300 36007KT P6SM SCT250=



Latest METAR

389
SAUS70 KWBC 221900 RRG
MTRGNV
METAR KGNV 221853Z 10SM CLR 31/17 A3011 RMK AO2 SLP194 T03060172


USA.gov is the U.S. government's official web portal to all federal, state and local government web resources and services.